メインページ
METAR-TAF:

METAR-TAF

空港 :

フロリアノーポリス, サンタカタリーナ州, ブラジル

緯度: 27-40S, 経度: 048-33W, 海抜: 5m

現時点の気象観測

当レポートは52分前の01:00(UTC)に作成
の風 4kt
気温 18°C
湿度 88%
気圧 1025 hPa
視程10km以上
高度900ftの雲は散在している

METAR: SBFL 260100Z 01004KT 9999 SCT009 18/16 Q1025

時間: 22:52 (01:52 UTC)

予報

当レポートは3時間22分前の22:30(UTC)に作成
予報は26日の 00時(UTC)から 26日の 24時(UTC)まで有効
の風 8kt
視程10km以上
高度3000ftの雲は散在している
26日の 10時(UTC)から 26日の 12時(UTC)まで徐々に
視程10km以上
1,500メートル以下は雲なし、積乱雲なし
26日の 21時(UTC)から 26日の 23時(UTC)まで徐々に
視程10km以上
高度3500ftの雲はほとんどない

TAF: SBFL 252230Z 2600/2624 36008KT 9999 SCT030 TN17/2609Z TX21/2618Z BECMG 2610/2612 CAVOK BECMG 2621/2623 9999 FEW035 RMK PER

4,000以上の空港の気象観測と天気予報(METAR報とTAF報)

利用可能な観測所は地図上に黄色い丸と赤い丸で示す。

丸の上にカーソルを重ねると観測所名を参照できる。

次にクリックすると気象観測と天気予報を参照できる。

マップの切り替え:黒色「×」印の緑ボタンをクリックして拡大、「-」印の緑ボタンをクリックして縮小、緑色の三角印をクリックして隣りの地図に切り替え


METAR-TAF: